Terminal Aerodrome Forecast
Issued by NWS Huntsville, AL

Home | Current Version | Previous Version | Text Only | Print | Product List | Glossary On
Versions: 1 2 3 4 5 6 7 8 9 10 11 12 13 14 15
000
FTUS44 KHUN 251123
TAFMSL
TAF
KMSL 251123Z 2512/2612 29008KT 6SM -RA BR SCT015 OVC070
      TEMPO 2512/2513 -DZ BKN015
     FM251400 VRB03KT P6SM SCT025 SCT080 OVC180
     FM260200 VRB03KT 6SM -RA BKN040 BKN080 OVC180=

USA.gov is the U.S. government's official web portal to all federal, state and local government web resources and services.